createdAt,value
2018-07-27T00:00:01.276Z,968.28
2018-07-27T00:01:02.043Z,968.28
2018-07-27T00:02:01.357Z,968.29
2018-07-27T00:03:01.408Z,968.29
2018-07-27T00:04:01.463Z,968.30
2018-07-27T00:05:01.513Z,968.28
2018-07-27T00:06:01.603Z,968.27
2018-07-27T00:07:01.615Z,968.26
2018-07-27T00:08:01.671Z,968.29
2018-07-27T00:09:01.718Z,968.28
2018-07-27T00:10:01.769Z,968.23
2018-07-27T00:11:01.857Z,968.27
2018-07-27T00:12:01.873Z,968.21
2018-07-27T00:13:01.929Z,968.26
2018-07-27T00:14:01.976Z,968.28
2018-07-27T00:15:02.029Z,968.26
2018-07-27T00:16:02.108Z,968.24
2018-07-27T00:17:02.159Z,968.23
2018-07-27T00:18:02.181Z,968.23
2018-07-27T00:19:02.234Z,968.18
2018-07-27T00:20:02.285Z,968.20
2018-07-27T00:21:02.339Z,968.14
2018-07-27T00:22:02.411Z,968.17
2018-07-27T00:23:02.440Z,968.16
2018-07-27T00:24:02.498Z,968.16
2018-07-27T00:25:02.542Z,968.17
2018-07-27T00:26:02.593Z,968.18
2018-07-27T00:27:02.671Z,968.20
2018-07-27T00:28:02.702Z,968.23
2018-07-27T00:29:02.747Z,968.20
2018-07-27T00:30:02.797Z,968.23
2018-07-27T00:31:02.852Z,968.23
2018-07-27T00:32:02.927Z,968.23
2018-07-27T00:33:02.987Z,968.27
2018-07-27T00:34:03.004Z,968.22
2018-07-27T00:35:03.055Z,968.22
2018-07-27T00:36:03.111Z,968.21
2018-07-27T00:37:03.159Z,968.27
2018-07-27T00:38:03.234Z,968.23
2018-07-27T00:39:03.261Z,968.22
2018-07-27T00:40:03.318Z,968.24
2018-07-27T00:41:03.364Z,968.25
2018-07-27T00:42:03.418Z,968.26
2018-07-27T00:43:03.491Z,968.23
2018-07-27T00:44:03.518Z,968.28
2018-07-27T00:45:03.570Z,968.26
2018-07-27T00:46:03.620Z,968.24
2018-07-27T00:47:03.675Z,968.23
2018-07-27T00:48:03.747Z,968.23
2018-07-27T00:49:03.798Z,968.22
2018-07-27T00:50:03.833Z,968.25
2018-07-27T00:51:03.876Z,968.27
2018-07-27T00:52:03.929Z,968.28
2018-07-27T00:53:04.012Z,968.29
2018-07-27T00:54:04.046Z,968.24
2018-07-27T00:55:04.113Z,968.23
2018-07-27T00:56:04.134Z,968.24
2018-07-27T00:57:04.185Z,968.25
2018-07-27T00:58:04.237Z,968.23
2018-07-27T00:59:04.286Z,968.21
2018-07-27T01:00:04.360Z,968.23
2018-07-27T01:01:04.402Z,968.23
2018-07-27T01:02:04.441Z,968.24
2018-07-27T01:03:04.527Z,968.27
2018-07-27T01:04:05.359Z,968.28
2018-07-27T01:05:04.595Z,968.30
2018-07-27T01:06:04.669Z,968.29
2018-07-27T01:07:04.697Z,968.28
2018-07-27T01:08:04.773Z,968.22
2018-07-27T01:09:04.799Z,968.25
2018-07-27T01:10:04.850Z,968.18
2018-07-27T01:11:04.934Z,968.20
2018-07-27T01:12:04.955Z,968.21
2018-07-27T01:13:05.004Z,968.20
2018-07-27T01:14:05.052Z,968.21
2018-07-27T01:15:05.104Z,968.20
2018-07-27T01:16:05.179Z,968.26
2018-07-27T01:17:05.207Z,968.22
2018-07-27T01:18:05.261Z,968.22
2018-07-27T01:19:05.334Z,968.21
2018-07-27T01:20:05.362Z,968.19
2018-07-27T01:21:05.414Z,968.21
2018-07-27T01:22:05.463Z,968.16
2018-07-27T01:23:05.518Z,968.17
2018-07-27T01:24:05.591Z,968.18
2018-07-27T01:25:05.615Z,968.18
2018-07-27T01:26:05.668Z,968.15
2018-07-27T01:27:05.716Z,968.18
2018-07-27T01:28:05.768Z,968.18
2018-07-27T01:29:05.842Z,968.18
2018-07-27T01:30:05.873Z,968.18
2018-07-27T01:31:05.921Z,968.20
2018-07-27T01:32:05.974Z,968.18
2018-07-27T01:33:06.055Z,968.21
2018-07-27T01:34:06.073Z,968.19
2018-07-27T01:35:06.124Z,968.20
2018-07-27T01:36:06.177Z,968.21
2018-07-27T01:37:06.227Z,968.19
2018-07-27T01:38:06.301Z,968.18
2018-07-27T01:39:06.370Z,968.19
2018-07-27T01:40:06.380Z,968.15
2018-07-27T01:41:06.430Z,968.16
2018-07-27T01:42:06.484Z,968.15
2018-07-27T01:43:06.532Z,968.17
2018-07-27T01:44:06.608Z,968.15
2018-07-27T01:45:06.637Z,968.16
2018-07-27T01:46:06.688Z,968.14
2018-07-27T01:47:06.737Z,968.12
2018-07-27T01:48:06.811Z,968.12
2018-07-27T01:49:06.843Z,968.15
2018-07-27T01:50:06.920Z,968.13
2018-07-27T01:51:07.016Z,968.12
2018-07-27T01:52:06.993Z,968.14
2018-07-27T01:53:07.042Z,968.14
2018-07-27T01:54:07.091Z,968.18
2018-07-27T01:55:07.166Z,968.17
2018-07-27T01:56:07.197Z,968.22
2018-07-27T01:57:07.246Z,968.21
2018-07-27T01:58:07.298Z,968.19
2018-07-27T01:59:07.379Z,968.21
2018-07-27T02:00:07.396Z,968.20
2018-07-27T02:01:07.448Z,968.17
2018-07-27T02:02:07.503Z,968.16
2018-07-27T02:03:07.549Z,968.19
2018-07-27T02:04:07.642Z,968.18
2018-07-27T02:05:07.651Z,968.19
2018-07-27T02:06:07.768Z,968.14
2018-07-27T02:07:07.753Z,968.14
2018-07-27T02:08:07.808Z,968.14
2018-07-27T02:09:07.892Z,968.13
2018-07-27T02:10:07.905Z,968.14
2018-07-27T02:11:07.958Z,968.09
2018-07-27T02:12:08.011Z,968.06
2018-07-27T02:13:08.120Z,968.03
2018-07-27T02:14:08.135Z,967.99
2018-07-27T02:15:08.162Z,968.02
2018-07-27T02:16:08.234Z,967.97
2018-07-27T02:17:08.262Z,967.93
2018-07-27T02:18:08.311Z,967.95
2018-07-27T02:19:08.364Z,967.96
2018-07-27T02:20:08.415Z,967.94
2018-07-27T02:21:08.497Z,967.95
2018-07-27T02:22:08.519Z,967.92
2018-07-27T02:23:08.569Z,967.95
2018-07-27T02:24:08.618Z,967.99
2018-07-27T02:25:08.668Z,967.95
2018-07-27T02:26:08.741Z,967.94
2018-07-27T02:27:08.776Z,967.96
2018-07-27T02:28:08.819Z,967.98
2018-07-27T02:29:08.872Z,967.99
2018-07-27T02:30:08.925Z,967.98
2018-07-27T02:31:08.996Z,967.97
2018-07-27T02:32:09.026Z,967.98
2018-07-27T02:33:09.103Z,967.97
2018-07-27T02:34:09.125Z,967.97
2018-07-27T02:35:09.177Z,967.93
2018-07-27T02:36:09.228Z,967.98
2018-07-27T02:37:09.283Z,967.98
2018-07-27T02:38:09.352Z,967.95
2018-07-27T02:39:09.379Z,968.01
2018-07-27T02:40:09.482Z,968.02
2018-07-27T02:41:09.486Z,967.97
2018-07-27T02:42:09.530Z,967.99
2018-07-27T02:43:09.629Z,967.97
2018-07-27T02:44:09.632Z,967.95
2018-07-27T02:45:09.685Z,967.89
2018-07-27T02:46:09.733Z,967.94
2018-07-27T02:47:09.784Z,967.95
2018-07-27T02:48:09.864Z,967.92
2018-07-27T02:49:09.892Z,967.92
2018-07-27T02:50:09.940Z,967.88
2018-07-27T02:51:09.991Z,967.90
2018-07-27T02:52:10.040Z,967.88
2018-07-27T02:53:10.114Z,967.89
2018-07-27T02:54:10.139Z,967.88
2018-07-27T02:55:10.213Z,967.84
2018-07-27T02:56:10.242Z,967.87
2018-07-27T02:57:10.293Z,967.87
2018-07-27T02:58:10.377Z,967.89
2018-07-27T02:59:10.392Z,967.90
2018-07-27T03:00:10.446Z,967.90
2018-07-27T03:01:10.498Z,967.87
2018-07-27T03:02:10.545Z,967.89
2018-07-27T03:03:10.630Z,967.86
2018-07-27T03:04:10.647Z,967.83
2018-07-27T03:05:10.722Z,967.82
2018-07-27T03:06:10.749Z,967.84
2018-07-27T03:07:10.801Z,967.83
2018-07-27T03:08:10.851Z,967.81
2018-07-27T03:09:10.912Z,967.78
2018-07-27T03:10:10.977Z,967.80
2018-07-27T03:11:11.000Z,967.79
2018-07-27T03:12:11.051Z,967.78
2018-07-27T03:13:11.110Z,967.77
2018-07-27T03:14:11.152Z,967.77
2018-07-27T03:15:11.227Z,967.76
2018-07-27T03:16:11.253Z,967.73
2018-07-27T03:17:11.312Z,967.75
2018-07-27T03:18:11.358Z,967.76
2018-07-27T03:19:11.405Z,967.77
2018-07-27T03:20:11.481Z,967.75
2018-07-27T03:21:11.507Z,967.76
2018-07-27T03:22:11.560Z,967.77
2018-07-27T03:23:11.611Z,967.73
2018-07-27T03:24:11.663Z,967.76
2018-07-27T03:25:11.734Z,967.76
2018-07-27T03:26:11.760Z,967.76
2018-07-27T03:27:11.809Z,967.74
2018-07-27T03:28:11.862Z,967.71
2018-07-27T03:29:11.914Z,967.73
2018-07-27T03:30:11.993Z,967.71
2018-07-27T03:31:12.016Z,967.72
2018-07-27T03:32:12.065Z,967.70
2018-07-27T03:33:12.114Z,967.69
2018-07-27T03:34:12.167Z,967.69
2018-07-27T03:35:12.238Z,967.70
2018-07-27T03:36:12.290Z,967.68
2018-07-27T03:37:12.318Z,967.71
2018-07-27T03:38:12.381Z,967.70
2018-07-27T03:39:12.417Z,967.72
2018-07-27T03:40:12.468Z,967.73
2018-07-27T03:41:12.541Z,967.72
2018-07-27T03:42:12.595Z,967.73
2018-07-27T03:43:12.623Z,967.75
2018-07-27T03:44:12.670Z,967.73
2018-07-27T03:45:12.722Z,967.73
2018-07-27T03:46:12.795Z,967.74
2018-07-27T03:47:12.856Z,967.74
2018-07-27T03:48:12.872Z,967.74
2018-07-27T03:49:13.901Z,967.75
2018-07-27T03:50:12.971Z,967.75
2018-07-27T03:51:13.023Z,967.74
2018-07-27T03:52:13.434Z,967.76
2018-07-27T03:53:13.128Z,967.78
2018-07-27T03:54:13.172Z,967.78
2018-07-27T03:55:13.229Z,967.80
2018-07-27T03:56:13.274Z,967.83
2018-07-27T03:57:13.348Z,967.85
2018-07-27T03:58:14.107Z,967.91
2018-07-27T03:59:13.433Z,967.90
2018-07-27T04:00:13.476Z,967.90
2018-07-27T04:01:14.407Z,967.89
2018-07-27T04:02:13.634Z,967.93
2018-07-27T04:03:13.626Z,967.91
2018-07-27T04:04:13.681Z,967.93
2018-07-27T04:05:13.729Z,967.92
2018-07-27T04:06:13.779Z,967.90
2018-07-27T04:07:13.898Z,967.94
2018-07-27T04:08:13.878Z,967.91
2018-07-27T04:09:13.953Z,967.87
2018-07-27T04:10:13.980Z,967.89
2018-07-27T04:11:14.032Z,967.90
2018-07-27T04:12:14.080Z,967.93
2018-07-27T04:13:14.132Z,967.93
2018-07-27T04:14:14.204Z,967.96
2018-07-27T04:15:14.232Z,967.91
2018-07-27T04:16:14.286Z,967.92
2018-07-27T04:17:14.333Z,967.93
2018-07-27T04:18:14.422Z,967.93
2018-07-27T04:19:14.432Z,967.94
2018-07-27T04:20:14.483Z,967.93
2018-07-27T04:21:14.535Z,967.99
2018-07-27T04:22:14.584Z,967.95
2018-07-27T04:23:14.659Z,967.99
2018-07-27T04:24:14.710Z,967.98
2018-07-27T04:25:14.738Z,968.01
2018-07-27T04:26:14.787Z,968.03
2018-07-27T04:27:14.835Z,968.05
2018-07-27T04:28:14.891Z,968.06
2018-07-27T04:29:14.960Z,968.08
2018-07-27T04:30:15.013Z,968.10
2018-07-27T04:31:15.038Z,968.09
2018-07-27T04:32:15.086Z,968.14
2018-07-27T04:33:15.139Z,968.07
2018-07-27T04:34:15.223Z,968.11
2018-07-27T04:35:15.237Z,968.10
2018-07-27T04:36:15.288Z,968.07
2018-07-27T04:37:15.341Z,968.05
2018-07-27T04:38:15.393Z,968.07
2018-07-27T04:39:15.463Z,968.06
2018-07-27T04:40:15.514Z,968.09
2018-07-27T04:41:15.540Z,968.07
2018-07-27T04:42:15.594Z,968.07
2018-07-27T04:43:15.640Z,968.09
2018-07-27T04:44:15.720Z,968.10
2018-07-27T04:45:15.768Z,968.14
2018-07-27T04:46:15.793Z,968.15
2018-07-27T04:47:15.844Z,968.15
2018-07-27T04:48:15.892Z,968.15
2018-07-27T04:49:15.975Z,968.14
2018-07-27T04:50:16.017Z,968.14
2018-07-27T04:51:16.043Z,968.15
2018-07-27T04:52:16.094Z,968.16
2018-07-27T04:53:16.145Z,968.21
2018-07-27T04:54:16.196Z,968.22
2018-07-27T04:55:16.269Z,968.18
2018-07-27T04:56:16.385Z,968.19
2018-07-27T04:57:16.346Z,968.23
2018-07-27T04:58:16.400Z,968.24
2018-07-27T04:59:16.446Z,968.21
2018-07-27T05:00:16.523Z,968.21
2018-07-27T05:01:16.572Z,968.19
2018-07-27T05:02:16.650Z,968.16
2018-07-27T05:03:16.650Z,968.16
2018-07-27T05:04:16.707Z,968.18
2018-07-27T05:05:16.752Z,968.21
2018-07-27T05:06:16.824Z,968.19
2018-07-27T05:07:16.859Z,968.23
2018-07-27T05:08:16.900Z,968.21
2018-07-27T05:09:16.951Z,968.26
2018-07-27T05:10:17.033Z,968.21
2018-07-27T05:11:17.057Z,968.26
2018-07-27T05:12:17.103Z,968.27
2018-07-27T05:13:17.157Z,968.24
2018-07-27T05:14:17.204Z,968.26
2018-07-27T05:15:17.276Z,968.25
2018-07-27T05:16:17.303Z,968.25
2018-07-27T05:17:17.379Z,968.24
2018-07-27T05:18:17.422Z,968.25
2018-07-27T05:19:17.455Z,968.23
2018-07-27T05:20:17.508Z,968.24
2018-07-27T05:21:17.559Z,968.24
2018-07-27T05:22:17.630Z,968.25
2018-07-27T05:23:17.663Z,968.24
2018-07-27T05:24:17.707Z,968.25
2018-07-27T05:25:17.758Z,968.22
2018-07-27T05:26:17.835Z,968.24
2018-07-27T05:27:17.867Z,968.24
2018-07-27T05:28:17.914Z,968.27
2018-07-27T05:29:17.960Z,968.26
2018-07-27T05:30:18.012Z,968.27
2018-07-27T05:31:18.088Z,968.25
2018-07-27T05:32:18.135Z,968.24
2018-07-27T05:33:18.163Z,968.26
2018-07-27T05:34:18.253Z,968.27
2018-07-27T05:35:18.267Z,968.25
2018-07-27T05:36:18.313Z,968.27
2018-07-27T05:37:18.397Z,968.29
2018-07-27T05:38:18.416Z,968.30
2018-07-27T05:39:18.467Z,968.32
2018-07-27T05:40:18.522Z,968.35
2018-07-27T05:41:19.130Z,968.35
2018-07-27T05:42:18.652Z,968.33
2018-07-27T05:43:18.669Z,968.40
2018-07-27T05:44:18.718Z,968.38
2018-07-27T05:45:18.770Z,968.39
2018-07-27T05:46:18.819Z,968.41
2018-07-27T05:47:18.895Z,968.38
2018-07-27T05:48:18.953Z,968.38
2018-07-27T05:49:18.973Z,968.36
2018-07-27T05:50:19.023Z,968.33
2018-07-27T05:51:19.078Z,968.31
2018-07-27T05:52:19.125Z,968.29
2018-07-27T05:53:19.203Z,968.32
2018-07-27T05:54:19.232Z,968.31
2018-07-27T05:55:19.282Z,968.33
2018-07-27T05:56:19.331Z,968.36
2018-07-27T05:57:19.381Z,968.35
2018-07-27T05:58:19.467Z,968.35
2018-07-27T05:59:19.519Z,968.42
2018-07-27T06:00:19.543Z,968.39
2018-07-27T06:01:19.590Z,968.39
2018-07-27T06:02:22.072Z,968.45
2018-07-27T06:03:19.717Z,968.46
2018-07-27T06:04:19.737Z,968.44
2018-07-27T06:05:20.636Z,968.46
2018-07-27T06:06:19.839Z,968.44
2018-07-27T06:07:19.889Z,968.46
2018-07-27T06:08:19.966Z,968.49
2018-07-27T06:09:20.025Z,968.51
2018-07-27T06:10:20.046Z,968.49
2018-07-27T06:11:20.095Z,968.52
2018-07-27T06:12:20.146Z,968.45
2018-07-27T06:13:20.198Z,968.51
2018-07-27T06:14:20.278Z,968.53
2018-07-27T06:15:20.308Z,968.51
2018-07-27T06:16:20.352Z,968.51
2018-07-27T06:17:20.405Z,968.53
2018-07-27T06:18:20.467Z,968.54
2018-07-27T06:19:20.548Z,968.54
2018-07-27T06:20:20.558Z,968.54
2018-07-27T06:21:21.176Z,968.53
2018-07-27T06:22:20.658Z,968.49
2018-07-27T06:23:20.714Z,968.53
2018-07-27T06:24:20.851Z,968.52
2018-07-27T06:25:20.840Z,968.53
2018-07-27T06:26:20.865Z,968.52
2018-07-27T06:27:20.917Z,968.49
2018-07-27T06:28:20.969Z,968.51
2018-07-27T06:29:21.038Z,968.48
2018-07-27T06:30:21.093Z,968.51
2018-07-27T06:31:21.122Z,968.46
2018-07-27T06:32:21.176Z,968.50
2018-07-27T06:33:21.226Z,968.51
2018-07-27T06:34:21.277Z,968.52
2018-07-27T06:35:21.355Z,968.50
2018-07-27T06:36:21.381Z,968.50
2018-07-27T06:37:21.433Z,968.54
2018-07-27T06:38:21.483Z,968.55
2018-07-27T06:39:21.537Z,968.54
2018-07-27T06:40:21.611Z,968.55
2018-07-27T06:41:21.643Z,968.60
2018-07-27T06:42:21.692Z,968.56
2018-07-27T06:43:21.746Z,968.58
2018-07-27T06:44:21.799Z,968.60
2018-07-27T06:45:21.921Z,968.59
2018-07-27T06:46:21.940Z,968.60
2018-07-27T06:47:21.954Z,968.63
2018-07-27T06:48:22.006Z,968.60
2018-07-27T06:49:22.055Z,968.60
2018-07-27T06:50:22.112Z,968.57
2018-07-27T06:51:22.203Z,968.60
2018-07-27T06:52:22.229Z,968.63
2018-07-27T06:53:22.271Z,968.61
2018-07-27T06:54:22.316Z,968.61
2018-07-27T06:55:22.370Z,968.64
2018-07-27T06:56:22.447Z,968.61
2018-07-27T06:57:22.475Z,968.63
2018-07-27T06:58:22.527Z,968.63
2018-07-27T06:59:22.580Z,968.61
2018-07-27T07:00:22.634Z,968.63
2018-07-27T07:01:22.718Z,968.66
2018-07-27T07:02:22.746Z,968.67
2018-07-27T07:03:22.842Z,968.67
2018-07-27T07:04:22.846Z,968.62
2018-07-27T07:05:22.909Z,968.67
2018-07-27T07:06:22.983Z,968.67
2018-07-27T07:07:23.012Z,968.67
2018-07-27T07:08:23.057Z,968.67
2018-07-27T07:09:23.113Z,968.69
2018-07-27T07:10:23.167Z,968.66
2018-07-27T07:11:23.245Z,968.69
2018-07-27T07:12:23.296Z,968.66
2018-07-27T07:13:23.329Z,968.64
2018-07-27T07:14:23.395Z,968.65
2018-07-27T07:15:23.435Z,968.68
2018-07-27T07:16:23.487Z,968.62
2018-07-27T07:17:24.163Z,968.62
2018-07-27T07:18:23.598Z,968.61
2018-07-27T07:19:23.652Z,968.63
2018-07-27T07:20:23.706Z,968.66
2018-07-27T07:21:23.760Z,968.67
2018-07-27T07:22:23.858Z,968.65
2018-07-27T07:23:23.866Z,968.64
2018-07-27T07:24:23.923Z,968.63
2018-07-27T07:25:24.060Z,968.65
2018-07-27T07:26:24.033Z,968.64
2018-07-27T07:27:24.118Z,968.66
2018-07-27T07:28:24.138Z,968.66
2018-07-27T07:29:24.192Z,968.68
2018-07-27T07:30:24.266Z,968.63
2018-07-27T07:31:24.304Z,968.62
2018-07-27T07:32:24.388Z,968.64
2018-07-27T07:33:24.413Z,968.64
2018-07-27T07:34:24.470Z,968.63
2018-07-27T07:35:24.524Z,968.64
2018-07-27T07:36:24.574Z,968.61
2018-07-27T07:37:24.654Z,968.60
2018-07-27T07:38:24.726Z,968.58
2018-07-27T07:39:24.741Z,968.57
2018-07-27T07:40:24.802Z,968.57
2018-07-27T07:41:24.849Z,968.57
2018-07-27T07:42:24.907Z,968.52
2018-07-27T07:43:25.000Z,968.55
2018-07-27T07:44:25.017Z,968.52
2018-07-27T07:45:25.076Z,968.54
2018-07-27T07:46:25.127Z,968.52
2018-07-27T07:47:25.184Z,968.50
2018-07-27T07:48:25.267Z,968.53
2018-07-27T07:49:25.322Z,968.53
2018-07-27T07:50:25.348Z,968.49
2018-07-27T07:51:25.405Z,968.49
2018-07-27T07:52:25.464Z,968.46
2018-07-27T07:53:25.572Z,968.47
2018-07-27T07:54:25.574Z,968.50
2018-07-27T07:55:25.628Z,968.49
2018-07-27T07:56:25.685Z,968.52
2018-07-27T07:57:25.741Z,968.54
2018-07-27T07:58:25.817Z,968.52
2018-07-27T07:59:25.873Z,968.52
2018-07-27T08:00:25.908Z,968.51
2018-07-27T08:01:25.963Z,968.46
2018-07-27T08:02:26.017Z,968.52
2018-07-27T08:03:26.074Z,968.50
2018-07-27T08:04:26.253Z,968.51
2018-07-27T08:05:26.259Z,968.47
2018-07-27T08:06:26.236Z,968.49
2018-07-27T08:07:26.292Z,968.46
2018-07-27T08:08:26.376Z,968.47
2018-07-27T08:09:26.428Z,968.48
2018-07-27T08:10:26.495Z,968.47
2018-07-27T08:11:26.514Z,968.46
2018-07-27T08:12:26.574Z,968.49
2018-07-27T08:13:26.627Z,968.46
2018-07-27T08:14:26.682Z,968.47
2018-07-27T08:15:26.761Z,968.44
2018-07-27T08:16:26.797Z,968.45
2018-07-27T08:17:26.850Z,968.48
2018-07-27T08:18:26.905Z,968.47
2018-07-27T08:19:26.960Z,968.49
2018-07-27T08:20:27.039Z,968.46
2018-07-27T08:21:27.081Z,968.48
2018-07-27T08:22:27.129Z,968.46
2018-07-27T08:23:27.185Z,968.48
2018-07-27T08:24:27.241Z,968.44
2018-07-27T08:25:27.323Z,968.42
2018-07-27T08:26:27.354Z,968.40
2018-07-27T08:27:27.410Z,968.43
2018-07-27T08:28:27.464Z,968.45
2018-07-27T08:29:27.523Z,968.43
2018-07-27T08:30:27.601Z,968.45
2018-07-27T08:31:27.634Z,968.44
2018-07-27T08:32:27.707Z,968.38
2018-07-27T08:33:27.752Z,968.40
2018-07-27T08:34:27.802Z,968.35
2018-07-27T08:35:27.897Z,968.40
2018-07-27T08:36:27.917Z,968.34
2018-07-27T08:37:27.974Z,968.40
2018-07-27T08:38:28.031Z,968.42
2018-07-27T08:39:28.085Z,968.37
2018-07-27T08:40:28.171Z,968.43
2018-07-27T08:41:28.200Z,968.35
2018-07-27T08:42:28.254Z,968.39
2018-07-27T08:43:28.311Z,968.37
2018-07-27T08:44:28.367Z,968.36
2018-07-27T08:45:28.445Z,968.36
2018-07-27T08:46:28.482Z,968.32
2018-07-27T08:47:28.560Z,968.35
2018-07-27T08:48:28.596Z,968.32
2018-07-27T08:49:28.650Z,968.32
2018-07-27T08:50:28.705Z,968.30
2018-07-27T08:51:28.766Z,968.26
2018-07-27T08:52:28.836Z,968.26
2018-07-27T08:53:28.872Z,968.28
2018-07-27T08:54:28.924Z,968.24
2018-07-27T08:55:28.981Z,968.32
2018-07-27T08:56:29.036Z,968.28
2018-07-27T08:57:29.124Z,968.26
2018-07-27T08:58:29.151Z,968.25
2018-07-27T08:59:29.212Z,968.28
2018-07-27T09:00:29.263Z,968.24
2018-07-27T09:01:29.318Z,968.23
2018-07-27T09:02:29.415Z,968.27
2018-07-27T09:03:29.429Z,968.24
2018-07-27T09:04:29.485Z,968.24
2018-07-27T09:05:29.543Z,968.25
2018-07-27T09:06:29.602Z,968.22
2018-07-27T09:07:29.688Z,968.25
2018-07-27T09:08:29.712Z,968.20
2018-07-27T09:09:29.768Z,968.20
2018-07-27T09:10:29.828Z,968.22
2018-07-27T09:11:29.884Z,968.22
2018-07-27T09:12:29.969Z,968.19
2018-07-27T09:13:29.994Z,968.20
2018-07-27T09:14:30.057Z,968.18
2018-07-27T09:15:30.107Z,968.23
2018-07-27T09:16:30.165Z,968.24
2018-07-27T09:17:30.245Z,968.18
2018-07-27T09:18:30.283Z,968.20
2018-07-27T09:19:30.366Z,968.20
2018-07-27T09:20:30.393Z,968.20
2018-07-27T09:21:30.448Z,968.17
2018-07-27T09:22:30.503Z,968.17
2018-07-27T09:23:30.561Z,968.15
2018-07-27T09:24:30.727Z,968.15
2018-07-27T09:25:30.680Z,968.18
2018-07-27T09:26:30.741Z,968.16
2018-07-27T09:27:30.788Z,968.15
2018-07-27T09:28:30.845Z,968.17
2018-07-27T09:29:30.928Z,968.18
2018-07-27T09:30:30.956Z,968.15
2018-07-27T09:31:31.073Z,968.15
2018-07-27T09:32:31.074Z,968.11
2018-07-27T09:33:31.127Z,968.09
2018-07-27T09:34:31.213Z,968.07
2018-07-27T09:35:31.301Z,968.07
2018-07-27T09:36:31.322Z,968.08
2018-07-27T09:37:31.355Z,968.11
2018-07-27T09:38:31.418Z,968.08
2018-07-27T09:39:31.470Z,968.05
2018-07-27T09:40:31.529Z,968.05
2018-07-27T09:41:31.606Z,968.06
2018-07-27T09:42:31.638Z,968.03
2018-07-27T09:43:31.693Z,968.04
2018-07-27T09:44:31.751Z,968.03
2018-07-27T09:45:31.839Z,968.03
2018-07-27T09:46:31.897Z,968.03
2018-07-27T09:47:31.921Z,968.04
2018-07-27T09:48:31.979Z,968.00
2018-07-27T09:49:32.037Z,968.04
2018-07-27T09:50:32.130Z,968.03
2018-07-27T09:51:32.165Z,968.04
2018-07-27T09:52:32.207Z,968.02
2018-07-27T09:53:32.264Z,968.00
2018-07-27T09:54:32.324Z,968.06
2018-07-27T09:55:32.412Z,968.00
2018-07-27T09:56:32.437Z,967.96
2018-07-27T09:57:32.527Z,967.94
2018-07-27T09:58:32.549Z,967.92
2018-07-27T09:59:32.618Z,967.92
2018-07-27T10:00:32.708Z,967.94
2018-07-27T10:01:32.719Z,967.95
2018-07-27T10:02:32.773Z,967.91
2018-07-27T10:03:32.831Z,967.96
2018-07-27T10:04:32.888Z,967.91
2018-07-27T10:05:32.984Z,967.91
2018-07-27T10:06:33.003Z,967.87
2018-07-27T10:07:33.058Z,967.88
2018-07-27T10:08:33.119Z,967.86
2018-07-27T10:09:33.173Z,967.86
2018-07-27T10:10:33.259Z,967.88
2018-07-27T10:11:33.287Z,967.91
2018-07-27T10:12:33.351Z,967.86
2018-07-27T10:13:33.407Z,967.86
2018-07-27T10:14:33.458Z,967.89
2018-07-27T10:15:33.547Z,967.87
2018-07-27T10:16:33.575Z,967.84
2018-07-27T10:17:33.633Z,967.82
2018-07-27T10:18:33.748Z,967.78
2018-07-27T10:19:33.770Z,967.82
2018-07-27T10:20:33.815Z,967.84
2018-07-27T10:21:33.862Z,967.85
2018-07-27T10:22:33.917Z,967.89
2018-07-27T10:23:33.974Z,967.84
2018-07-27T10:24:34.751Z,967.83
2018-07-27T10:25:34.092Z,967.80
2018-07-27T10:26:34.149Z,967.80
2018-07-27T10:27:34.203Z,967.75
2018-07-27T10:28:34.261Z,967.77
2018-07-27T10:29:34.343Z,967.79
2018-07-27T10:30:34.377Z,967.78
2018-07-27T10:31:34.433Z,967.78
2018-07-27T10:32:34.493Z,967.79
2018-07-27T10:33:34.550Z,967.77
2018-07-27T10:34:34.638Z,967.76
2018-07-27T10:35:34.665Z,967.76
2018-07-27T10:36:34.747Z,967.72
2018-07-27T10:37:34.779Z,967.77
2018-07-27T10:38:34.915Z,967.75
2018-07-27T10:39:34.911Z,967.77
2018-07-27T10:40:34.951Z,967.72
2018-07-27T10:41:35.038Z,967.78
2018-07-27T10:42:35.070Z,967.73
2018-07-27T10:43:35.127Z,967.70
2018-07-27T10:44:35.183Z,967.68
2018-07-27T10:45:35.596Z,967.70
2018-07-27T10:46:35.301Z,967.67
2018-07-27T10:47:35.358Z,967.63
2018-07-27T10:48:35.417Z,967.63
2018-07-27T10:49:35.474Z,967.61
2018-07-27T10:50:35.552Z,967.58
2018-07-27T10:51:35.625Z,967.59
2018-07-27T10:52:35.645Z,967.61
2018-07-27T10:53:35.704Z,967.57
2018-07-27T10:54:35.760Z,967.57
2018-07-27T10:55:35.815Z,967.55
2018-07-27T10:56:35.905Z,967.56
2018-07-27T10:57:35.942Z,967.54
2018-07-27T10:58:35.993Z,967.52
2018-07-27T10:59:36.046Z,967.53
2018-07-27T11:00:36.104Z,967.57
2018-07-27T11:01:36.194Z,967.52
2018-07-27T11:02:36.218Z,967.53
2018-07-27T11:03:36.279Z,967.53
2018-07-27T11:04:36.332Z,967.50
2018-07-27T11:05:36.396Z,967.47
2018-07-27T11:06:36.473Z,967.51
2018-07-27T11:07:37.794Z,967.44
2018-07-27T11:08:36.566Z,967.45
2018-07-27T11:09:36.623Z,967.46
2018-07-27T11:10:36.681Z,967.43
2018-07-27T11:11:36.774Z,967.40
2018-07-27T11:12:36.801Z,967.40
2018-07-27T11:13:36.856Z,967.33
2018-07-27T11:14:36.920Z,967.37
2018-07-27T11:15:36.972Z,967.33
2018-07-27T11:16:37.058Z,967.32
2018-07-27T11:17:37.132Z,967.32
2018-07-27T11:18:37.170Z,967.34
2018-07-27T11:19:37.206Z,967.29
2018-07-27T11:20:37.264Z,967.30
2018-07-27T11:21:37.323Z,967.29
2018-07-27T11:22:37.385Z,967.27
2018-07-27T11:23:37.465Z,967.22
2018-07-27T11:24:37.500Z,967.25
2018-07-27T11:25:37.575Z,967.19
2018-07-27T11:26:37.618Z,967.18
2018-07-27T11:27:37.674Z,967.16
2018-07-27T11:28:37.778Z,967.21
2018-07-27T11:29:37.791Z,967.17
2018-07-27T11:30:37.851Z,967.16
2018-07-27T11:31:37.910Z,967.15
2018-07-27T11:32:37.969Z,967.14
2018-07-27T11:33:38.051Z,967.12
2018-07-27T11:34:38.085Z,967.10
2018-07-27T11:35:38.147Z,967.09
2018-07-27T11:36:38.204Z,967.10
2018-07-27T11:37:38.265Z,967.09
2018-07-27T11:38:38.347Z,967.10
2018-07-27T11:39:38.379Z,967.10
2018-07-27T11:40:38.442Z,967.08
2018-07-27T11:41:38.508Z,967.08
2018-07-27T11:42:38.570Z,967.05
2018-07-27T11:43:38.648Z,967.07
2018-07-27T11:44:38.675Z,967.05
2018-07-27T11:45:38.736Z,967.02
2018-07-27T11:46:38.794Z,967.04
2018-07-27T11:47:38.853Z,967.02
2018-07-27T11:48:38.937Z,967.02
2018-07-27T11:49:39.006Z,967.03
2018-07-27T11:50:39.033Z,967.05
2018-07-27T11:51:39.091Z,967.03
2018-07-27T11:52:39.152Z,967.01
2018-07-27T11:53:39.209Z,967.03
2018-07-27T11:54:39.296Z,967.01
2018-07-27T11:55:39.331Z,967.00
2018-07-27T11:56:39.392Z,967.04
2018-07-27T11:57:39.449Z,966.99
2018-07-27T11:58:39.513Z,966.97
2018-07-27T11:59:39.597Z,966.94
2018-07-27T12:00:39.660Z,966.91
2018-07-27T12:01:39.697Z,966.91
2018-07-27T12:02:39.754Z,966.92
2018-07-27T12:03:39.812Z,966.97
2018-07-27T12:04:39.873Z,966.92
2018-07-27T12:05:39.957Z,966.98
2018-07-27T12:06:40.007Z,966.97
2018-07-27T12:07:40.057Z,966.96
2018-07-27T12:08:40.115Z,966.97
2018-07-27T12:09:40.174Z,966.93
2018-07-27T12:10:40.256Z,966.94
2018-07-27T12:11:40.296Z,966.91
2018-07-27T12:12:40.354Z,966.90
2018-07-27T12:13:40.467Z,966.91
2018-07-27T12:14:40.661Z,966.91
2018-07-27T12:15:40.560Z,966.89
2018-07-27T12:16:40.597Z,966.87
2018-07-27T12:17:40.666Z,966.85
2018-07-27T12:18:40.718Z,966.83
2018-07-27T12:19:40.781Z,966.79
2018-07-27T12:20:40.887Z,966.81
2018-07-27T12:21:41.085Z,966.80
2018-07-27T12:22:40.965Z,966.81
2018-07-27T12:23:41.040Z,966.78
2018-07-27T12:24:41.091Z,966.86
2018-07-27T12:25:41.183Z,966.82
2018-07-27T12:26:41.258Z,966.81
2018-07-27T12:27:41.276Z,966.77
2018-07-27T12:28:41.337Z,966.77